Main page
METAR-TAF:

METAR-TAF

Airports :

Reus Airport

Reus, Spain

latitude: 41-09N, longitude: 001-10E, elevation: 71 m

Current weather observation

The report was made 39 minutes ago, at 02:30 UTC
Wind 3 kt from variable directions
Temperature 13°C
Humidity 54%
Pressure 1016 hPa
Visibility 10 km or more

METAR: LERS 260230Z AUTO VRB03KT 9999 NCD 13/04 Q1016

Time: 05:09 (03:09 UTC)

Forecast

The report was made 1 hour and 9 minutes ago, at 02:00 UTC
Forecast valid from 26 at 03 UTC to 27 at 03 UTC
Wind 7 kt from the West
Visibility 10 km or more
Few clouds at a height of 4000 ft
Temporary
from 26 at 05 UTC to 26 at 18 UTC
Wind 15 kt from the West/Northwest with gusts up to 30 kt

TAF: LERS 260200Z 2603/2703 28007KT 9999 FEW040 TX22/2612Z TN11/2606Z TEMPO 2605/2618 29015G30KT

Weather observations and forecasts of more than 4000 airports (METAR and TAF reports).

The available stations are represented by yellow and red dots on the map.

Hover mouse over dot to see the name of the station.

Then click to see weather observations and forecasts.

To change the map : click on the green buttons with a black cross to zoom in, on the green button with a dash to zoom out, or on the green arrows for adjacent maps.


METAR-TAF: